createdAt,value
2022-09-09T00:01:51.094Z,14.32
2022-09-09T00:04:38.907Z,14.29
2022-09-09T00:07:25.109Z,14.29
2022-09-09T00:10:06.969Z,14.33
2022-09-09T00:12:58.762Z,14.33
2022-09-09T00:15:32.317Z,14.32
2022-09-09T00:18:01.697Z,14.31
2022-09-09T00:20:48.044Z,14.32
2022-09-09T00:23:26.036Z,14.28
2022-09-09T00:26:03.634Z,14.25
2022-09-09T00:28:34.645Z,14.22
2022-09-09T00:31:12.959Z,14.19
2022-09-09T00:33:40.185Z,14.25
2022-09-09T00:36:14.742Z,14.29
2022-09-09T00:38:54.023Z,14.31
2022-09-09T00:41:36.052Z,14.33
2022-09-09T00:44:14.812Z,14.41
2022-09-09T00:46:57.156Z,14.44
2022-09-09T00:49:26.633Z,14.45
2022-09-09T00:52:14.357Z,14.50
2022-09-09T00:54:47.437Z,14.50
2022-09-09T00:57:26.065Z,14.50
2022-09-09T01:00:12.761Z,14.54
2022-09-09T01:02:44.716Z,14.45
2022-09-09T01:05:25.216Z,14.38
2022-09-09T01:07:56.283Z,14.41
2022-09-09T01:10:54.333Z,14.32
2022-09-09T01:13:34.769Z,14.30
2022-09-09T01:16:04.807Z,14.33
2022-09-09T01:51:54.821Z,14.46
2022-09-09T01:54:23.551Z,14.51
2022-09-09T01:57:05.233Z,14.51
2022-09-09T02:00:11.800Z,14.55
2022-09-09T02:02:47.420Z,14.59
2022-09-09T02:05:38.391Z,14.64
2022-09-09T02:08:27.870Z,14.66
2022-09-09T02:11:06.749Z,14.68
2022-09-09T02:13:37.545Z,14.76
2022-09-09T02:16:29.225Z,14.82
2022-09-09T02:19:03.469Z,14.85
2022-09-09T02:21:32.034Z,14.80
2022-09-09T02:24:01.179Z,14.76
2022-09-09T02:26:28.165Z,14.76
2022-09-09T02:28:59.263Z,14.74
2022-09-09T02:32:13.427Z,14.78
2022-09-09T02:41:14.251Z,14.92
2022-09-09T02:43:46.944Z,14.95
2022-09-09T02:46:47.168Z,14.97
2022-09-09T02:49:45.046Z,14.99
2022-09-09T02:52:19.674Z,15.00
2022-09-09T02:54:46.552Z,15.02
2022-09-09T02:57:28.946Z,15.07
2022-09-09T02:59:58.467Z,15.11
2022-09-09T03:02:25.481Z,15.07
2022-09-09T03:04:52.846Z,15.08
2022-09-09T03:07:20.200Z,15.10
2022-09-09T03:09:46.634Z,15.16
2022-09-09T03:12:13.279Z,15.12
2022-09-09T03:14:39.748Z,15.13
2022-09-09T03:17:06.618Z,15.12
2022-09-09T03:19:33.044Z,15.17
2022-09-09T03:21:59.567Z,15.15
2022-09-09T03:24:26.227Z,15.12
2022-09-09T03:26:52.674Z,15.12
2022-09-09T03:29:19.511Z,15.12
2022-09-09T03:31:46.337Z,15.02
2022-09-09T03:34:13.914Z,15.00
2022-09-09T03:36:42.063Z,14.99
2022-09-09T03:39:08.544Z,14.96
2022-09-09T03:41:35.093Z,14.97
2022-09-09T03:44:01.582Z,14.97
2022-09-09T03:46:28.020Z,14.93
2022-09-09T03:48:54.464Z,14.92
2022-09-09T03:51:21.021Z,14.91
2022-09-09T03:53:47.548Z,14.95
2022-09-09T03:56:14.615Z,14.98
2022-09-09T03:58:41.869Z,15.03
2022-09-09T04:01:18.799Z,14.97
2022-09-09T04:03:48.199Z,14.93
2022-09-09T04:06:15.632Z,14.93
2022-09-09T04:08:42.687Z,14.87
2022-09-09T04:11:09.555Z,14.87
2022-09-09T04:13:38.693Z,14.89
2022-09-09T04:16:05.851Z,14.92
2022-09-09T04:18:33.163Z,14.86
2022-09-09T04:20:59.710Z,14.76
2022-09-09T04:23:29.786Z,14.71
2022-09-09T04:25:57.625Z,14.70
2022-09-09T04:28:26.521Z,14.68
2022-09-09T04:30:53.338Z,14.67
2022-09-09T04:33:20.224Z,14.68
2022-09-09T04:35:48.761Z,14.66
2022-09-09T04:38:16.382Z,14.67
2022-09-09T04:40:44.588Z,14.75
2022-09-09T04:43:14.367Z,14.77
2022-09-09T04:45:42.020Z,14.76
2022-09-09T04:48:10.541Z,14.74
2022-09-09T04:50:36.934Z,14.74
2022-09-09T04:53:06.828Z,14.81
2022-09-09T04:55:34.736Z,14.79
2022-09-09T04:58:09.438Z,14.77
2022-09-09T05:00:36.856Z,14.82
2022-09-09T05:03:04.957Z,14.84
2022-09-09T05:05:31.480Z,14.80
2022-09-09T05:08:06.176Z,14.76
2022-09-09T05:10:33.309Z,14.77
2022-09-09T05:13:00.096Z,14.78
2022-09-09T05:15:26.622Z,14.86
2022-09-09T05:17:54.089Z,14.82
2022-09-09T05:20:20.809Z,14.82
2022-09-09T05:22:47.202Z,14.81
2022-09-09T05:25:13.646Z,14.89
2022-09-09T05:27:40.115Z,14.92
2022-09-09T05:30:07.035Z,14.93
2022-09-09T05:32:34.325Z,15.00
2022-09-09T05:35:00.767Z,15.07
2022-09-09T05:37:27.163Z,15.09
2022-09-09T05:39:54.354Z,15.26
2022-09-09T05:42:20.974Z,15.37
2022-09-09T05:44:47.343Z,15.43
2022-09-09T05:47:13.799Z,15.52
2022-09-09T05:49:40.957Z,15.53
2022-09-09T05:52:07.595Z,15.61
2022-09-09T05:54:33.970Z,15.62
2022-09-09T05:57:00.565Z,15.87
2022-09-09T05:59:27.013Z,16.20
2022-09-09T06:01:54.133Z,16.41
2022-09-09T06:04:23.494Z,16.72
2022-09-09T06:06:50.033Z,16.83
2022-09-09T06:09:16.449Z,16.82
2022-09-09T06:11:42.938Z,16.82
2022-09-09T06:14:09.650Z,16.82
2022-09-09T06:16:38.716Z,16.94
2022-09-09T06:19:05.438Z,16.91
2022-09-09T06:21:34.701Z,16.80
2022-09-09T06:24:01.957Z,16.74
2022-09-09T06:26:33.924Z,16.67
2022-09-09T06:29:01.419Z,16.64
2022-09-09T06:31:31.332Z,16.55
2022-09-09T06:33:59.738Z,16.61
2022-09-09T06:36:31.977Z,16.74
2022-09-09T06:38:59.101Z,17.09
2022-09-09T06:41:28.071Z,17.82
2022-09-09T06:43:56.450Z,18.40
2022-09-09T06:46:31.995Z,18.89
2022-09-09T06:49:00.606Z,19.50
2022-09-09T06:51:30.336Z,19.75
2022-09-09T06:53:59.237Z,19.76
2022-09-09T06:56:34.647Z,19.62
2022-09-09T06:59:04.857Z,19.68
2022-09-09T07:01:33.702Z,19.92
2022-09-09T07:04:00.963Z,19.99
2022-09-09T07:06:29.499Z,20.21
2022-09-09T07:08:58.750Z,20.19
2022-09-09T07:11:27.953Z,20.23
2022-09-09T07:13:54.951Z,20.32
2022-09-09T07:16:25.635Z,20.59
2022-09-09T07:18:58.825Z,21.28
2022-09-09T07:21:29.746Z,21.69
2022-09-09T07:23:56.900Z,21.57
2022-09-09T07:26:26.756Z,22.17
2022-09-09T07:28:54.515Z,23.10
2022-09-09T07:31:24.998Z,23.87
2022-09-09T07:33:51.674Z,24.52
2022-09-09T07:36:31.277Z,25.06
2022-09-09T07:39:08.254Z,25.02
2022-09-09T07:41:37.481Z,25.29
2022-09-09T07:44:50.095Z,25.63
2022-09-09T07:47:19.262Z,26.06
2022-09-09T07:49:47.174Z,26.30
2022-09-09T07:52:14.951Z,26.96
2022-09-09T07:54:43.390Z,26.60
2022-09-09T07:57:09.758Z,26.14
2022-09-09T07:59:36.175Z,25.60
2022-09-09T08:02:02.848Z,25.23
2022-09-09T08:04:29.473Z,24.71
2022-09-09T08:06:58.972Z,24.11
2022-09-09T08:09:28.041Z,23.65
2022-09-09T08:11:54.494Z,22.90
2022-09-09T08:14:20.923Z,22.60
2022-09-09T08:16:49.720Z,22.43
2022-09-09T08:19:16.719Z,22.34
2022-09-09T08:21:44.403Z,22.35
2022-09-09T08:24:11.528Z,22.73
2022-09-09T08:26:44.824Z,23.10
2022-09-09T08:29:14.612Z,23.59
2022-09-09T08:31:47.789Z,24.12
2022-09-09T08:34:14.502Z,24.87
2022-09-09T08:36:43.548Z,25.31
2022-09-09T08:39:12.720Z,25.88
2022-09-09T08:42:03.677Z,26.29
2022-09-09T08:44:39.166Z,26.75
2022-09-09T08:47:20.893Z,26.73
2022-09-09T08:50:02.631Z,26.92
2022-09-09T08:52:45.290Z,27.39
2022-09-09T08:55:29.567Z,27.25
2022-09-09T08:57:58.731Z,27.38
2022-09-09T09:00:36.398Z,27.71
2022-09-09T09:03:10.207Z,27.61
2022-09-09T09:05:48.669Z,27.93
2022-09-09T09:08:38.943Z,28.30
2022-09-09T09:11:06.908Z,28.47
2022-09-09T09:13:43.067Z,29.14
2022-09-09T09:16:16.138Z,28.49
2022-09-09T09:18:43.227Z,28.51
2022-09-09T09:21:18.379Z,28.66
2022-09-09T09:23:54.940Z,28.56
2022-09-09T09:26:23.972Z,28.35
2022-09-09T09:28:52.270Z,28.04
2022-09-09T09:31:20.901Z,27.93
2022-09-09T09:33:53.775Z,27.81
2022-09-09T09:36:24.544Z,27.50
2022-09-09T09:41:48.518Z,25.78
2022-09-09T09:44:31.814Z,25.08
2022-09-09T09:47:17.861Z,25.03
2022-09-09T09:50:03.514Z,24.96
2022-09-09T09:52:31.555Z,25.07
2022-09-09T09:55:04.032Z,25.07
2022-09-09T09:57:35.190Z,25.18
2022-09-09T10:00:16.052Z,25.35
2022-09-09T10:02:45.191Z,25.21
2022-09-09T10:05:14.400Z,24.93
2022-09-09T10:07:41.183Z,24.90
2022-09-09T10:10:15.356Z,24.89
2022-09-09T10:13:04.084Z,24.71
2022-09-09T10:15:52.368Z,24.50
2022-09-09T10:18:44.507Z,24.41
2022-09-09T10:21:33.090Z,24.51
2022-09-09T10:24:19.670Z,24.62
2022-09-09T10:27:10.647Z,24.87
2022-09-09T10:30:05.438Z,24.91
2022-09-09T10:32:40.233Z,24.83
2022-09-09T10:35:34.274Z,24.81
2022-09-09T10:38:03.660Z,24.72
2022-09-09T10:40:54.406Z,24.48
2022-09-09T10:43:29.959Z,24.55
2022-09-09T10:46:23.998Z,24.88
2022-09-09T10:49:06.665Z,25.17
2022-09-09T10:52:08.408Z,25.19
2022-09-09T10:54:54.712Z,25.12
2022-09-09T10:57:37.558Z,24.88
2022-09-09T11:00:08.004Z,25.01
2022-09-09T11:02:35.537Z,25.10
2022-09-09T11:05:14.024Z,25.05
2022-09-09T11:07:46.704Z,24.82
2022-09-09T11:10:19.791Z,24.90
2022-09-09T11:12:51.384Z,24.74
2022-09-09T11:15:42.171Z,24.97
2022-09-09T11:18:16.417Z,25.30
2022-09-09T11:20:45.623Z,25.46
2022-09-09T11:23:23.050Z,25.51
2022-09-09T11:25:56.902Z,25.67
2022-09-09T11:28:58.056Z,25.56
2022-09-09T11:31:47.391Z,25.62
2022-09-09T11:34:51.534Z,25.90
2022-09-09T11:37:39.986Z,26.00
2022-09-09T11:40:20.714Z,26.04
2022-09-09T11:42:50.769Z,26.15
2022-09-09T11:45:30.241Z,26.37
2022-09-09T11:48:04.993Z,26.28
2022-09-09T11:50:37.399Z,26.32
2022-09-09T11:53:23.903Z,26.18
2022-09-09T11:56:14.394Z,26.10
2022-09-09T11:58:43.810Z,26.16
2022-09-09T12:01:44.027Z,26.01
2022-09-09T12:04:10.341Z,25.92
2022-09-09T12:06:50.351Z,25.90
2022-09-09T12:09:25.990Z,25.70
2022-09-09T12:11:53.012Z,26.01
2022-09-09T12:14:24.195Z,26.08
2022-09-09T12:16:51.898Z,25.96
2022-09-09T12:19:26.307Z,25.56
2022-09-09T12:22:04.076Z,25.55
2022-09-09T12:24:58.444Z,25.23
2022-09-09T12:27:35.451Z,25.22
2022-09-09T12:30:05.780Z,25.26
2022-09-09T12:32:32.234Z,25.17
2022-09-09T12:35:12.773Z,25.15
2022-09-09T12:37:42.146Z,24.97
2022-09-09T12:40:25.421Z,24.97
2022-09-09T12:42:52.283Z,25.00
2022-09-09T12:45:22.141Z,25.22
2022-09-09T12:47:59.901Z,25.26
2022-09-09T12:50:30.213Z,25.04
2022-09-09T12:53:00.461Z,24.53
2022-09-09T12:55:31.873Z,24.08
2022-09-09T12:58:00.412Z,23.51
2022-09-09T13:00:27.809Z,23.03
2022-09-09T13:02:56.611Z,22.74
2022-09-09T13:05:28.955Z,22.37
2022-09-09T13:08:11.045Z,21.85
2022-09-09T13:10:57.651Z,21.36
2022-09-09T13:13:32.648Z,20.79
2022-09-09T13:16:01.722Z,20.33
2022-09-09T13:18:31.748Z,19.96
2022-09-09T13:21:01.470Z,19.56
2022-09-09T13:23:32.055Z,19.30
2022-09-09T13:26:05.044Z,19.14
2022-09-09T13:28:33.729Z,18.95
2022-09-09T13:31:03.786Z,18.81
2022-09-09T13:33:38.779Z,18.74
2022-09-09T13:36:10.155Z,18.65
2022-09-09T13:38:39.316Z,18.69
2022-09-09T13:41:08.960Z,19.09
2022-09-09T13:43:45.647Z,19.34
2022-09-09T13:46:41.845Z,19.49
2022-09-09T13:49:09.828Z,19.53
2022-09-09T13:51:37.929Z,19.52
2022-09-09T13:54:10.830Z,19.63
2022-09-09T13:56:39.673Z,19.60
2022-09-09T13:59:10.510Z,19.67
2022-09-09T14:01:38.473Z,19.57
2022-09-09T14:04:06.341Z,19.58
2022-09-09T14:06:33.365Z,19.58
2022-09-09T14:08:59.958Z,19.65
2022-09-09T14:11:26.650Z,19.58
2022-09-09T14:13:53.064Z,19.54
2022-09-09T14:16:19.571Z,19.56
2022-09-09T14:18:46.714Z,19.52
2022-09-09T14:21:13.248Z,19.66
2022-09-09T14:23:39.751Z,19.73
2022-09-09T14:26:06.969Z,19.76
2022-09-09T14:31:21.891Z,19.84
2022-09-09T14:33:48.309Z,19.84
2022-09-09T14:36:16.039Z,19.89
2022-09-09T14:38:43.245Z,20.01
2022-09-09T14:41:12.032Z,20.12
2022-09-09T14:43:39.862Z,20.22
2022-09-09T14:46:10.975Z,20.25
2022-09-09T14:48:38.335Z,20.34
2022-09-09T14:51:13.784Z,20.36
2022-09-09T14:53:41.232Z,20.40
2022-09-09T14:56:19.452Z,20.47
2022-09-09T14:58:45.963Z,20.37
2022-09-09T15:01:14.904Z,20.39
2022-09-09T15:03:42.883Z,20.44
2022-09-09T15:06:10.278Z,20.39
2022-09-09T15:08:41.827Z,20.34
2022-09-09T15:11:11.053Z,20.31
2022-09-09T15:13:38.906Z,20.26
2022-09-09T15:16:13.773Z,20.23
2022-09-09T15:18:43.756Z,20.23
2022-09-09T15:21:16.419Z,20.08
2022-09-09T15:23:43.570Z,20.05
2022-09-09T15:26:10.976Z,20.03
2022-09-09T15:28:39.032Z,19.99
2022-09-09T15:31:08.461Z,19.97
2022-09-09T15:33:37.679Z,19.99
2022-09-09T15:36:22.834Z,19.92
2022-09-09T15:38:50.527Z,19.99
2022-09-09T15:41:18.996Z,19.96
2022-09-09T15:43:47.254Z,19.92
2022-09-09T15:46:39.803Z,19.90
2022-09-09T15:49:26.231Z,19.88
2022-09-09T15:51:58.352Z,19.95
2022-09-09T15:54:26.482Z,19.93
2022-09-09T15:56:58.788Z,19.85
2022-09-09T15:59:26.636Z,19.84
2022-09-09T16:01:53.237Z,19.78
2022-09-09T16:04:26.453Z,19.80
2022-09-09T16:06:59.369Z,19.75
2022-09-09T16:09:27.707Z,19.74
2022-09-09T16:11:59.761Z,19.76
2022-09-09T16:14:26.632Z,19.81
2022-09-09T16:16:53.296Z,19.80
2022-09-09T16:19:20.225Z,19.68
2022-09-09T16:21:48.758Z,19.66
2022-09-09T16:24:19.000Z,19.73
2022-09-09T16:26:48.073Z,19.76
2022-09-09T16:29:15.972Z,19.77
2022-09-09T16:31:42.802Z,19.81
2022-09-09T16:34:10.358Z,19.81
2022-09-09T16:36:39.899Z,19.88
2022-09-09T16:39:09.867Z,19.89
2022-09-09T16:41:37.319Z,19.93
2022-09-09T16:44:06.626Z,19.92
2022-09-09T16:46:36.529Z,19.88
2022-09-09T16:49:05.781Z,19.93
2022-09-09T16:51:35.553Z,19.86
2022-09-09T16:54:04.112Z,19.77
2022-09-09T16:56:34.926Z,19.72
2022-09-09T16:59:03.535Z,19.67
2022-09-09T17:01:34.082Z,19.56
2022-09-09T17:04:02.865Z,19.50
2022-09-09T17:06:41.299Z,19.44
2022-09-09T17:09:12.398Z,19.40
2022-09-09T17:11:40.175Z,19.37
2022-09-09T17:14:10.206Z,19.34
2022-09-09T17:16:37.762Z,19.26
2022-09-09T17:19:05.061Z,19.15
2022-09-09T17:21:33.240Z,19.09
2022-09-09T17:24:00.371Z,19.04
2022-09-09T17:26:29.660Z,18.97
2022-09-09T17:28:59.791Z,18.91
2022-09-09T17:31:28.467Z,18.88
2022-09-09T17:33:55.606Z,18.84
2022-09-09T17:36:22.942Z,18.96
2022-09-09T17:38:50.058Z,18.95
2022-09-09T17:41:19.451Z,18.93
2022-09-09T17:43:46.539Z,18.90
2022-09-09T17:46:17.024Z,18.82
2022-09-09T17:48:45.800Z,18.75
2022-09-09T17:51:28.248Z,18.67
2022-09-09T17:53:56.144Z,18.63
2022-09-09T17:56:24.558Z,18.58
2022-09-09T17:58:52.653Z,18.54
2022-09-09T18:01:20.448Z,18.45
2022-09-09T18:03:48.911Z,18.36
2022-09-09T18:06:18.455Z,18.34
2022-09-09T18:08:53.274Z,18.36
2022-09-09T18:11:21.718Z,18.26
2022-09-09T18:13:58.294Z,18.20
2022-09-09T18:16:28.803Z,18.15
2022-09-09T18:18:58.362Z,18.09
2022-09-09T18:21:27.534Z,17.99
2022-09-09T18:23:54.119Z,17.95
2022-09-09T18:26:26.177Z,17.93
2022-09-09T18:28:55.108Z,17.85
2022-09-09T18:31:24.177Z,17.83
2022-09-09T18:33:53.158Z,17.79
2022-09-09T18:36:22.280Z,17.79
2022-09-09T18:38:49.712Z,17.74
2022-09-09T18:41:22.036Z,17.65
2022-09-09T18:43:50.731Z,17.64
2022-09-09T18:46:18.782Z,17.64
2022-09-09T18:48:45.806Z,17.61
2022-09-09T18:51:14.891Z,17.56
2022-09-09T18:53:41.848Z,17.41
2022-09-09T18:56:10.538Z,17.24
2022-09-09T18:58:37.116Z,17.11
2022-09-09T19:01:06.041Z,17.03
2022-09-09T19:03:35.344Z,16.98
2022-09-09T19:06:08.923Z,16.91
2022-09-09T19:08:39.975Z,16.84
2022-09-09T19:11:08.777Z,16.80
2022-09-09T19:13:36.314Z,16.75
2022-09-09T19:16:08.691Z,16.73
2022-09-09T19:18:36.842Z,16.71
2022-09-09T19:21:13.778Z,16.66
2022-09-09T19:23:41.451Z,16.60
2022-09-09T19:26:08.506Z,16.58
2022-09-09T19:28:35.869Z,16.55
2022-09-09T19:31:04.616Z,16.56
2022-09-09T19:33:31.565Z,16.48
2022-09-09T19:36:00.954Z,16.48
2022-09-09T19:38:28.277Z,16.41
2022-09-09T19:40:54.987Z,16.33
2022-09-09T19:43:21.380Z,16.24
2022-09-09T19:45:58.696Z,16.25
2022-09-09T19:48:31.452Z,16.21
2022-09-09T19:51:16.116Z,16.16
2022-09-09T19:53:51.337Z,16.08
2022-09-09T19:56:19.951Z,16.01
2022-09-09T19:58:47.649Z,15.96
2022-09-09T20:01:20.668Z,15.98
2022-09-09T20:03:49.931Z,15.91
2022-09-09T20:06:18.083Z,15.86
2022-09-09T20:08:47.813Z,15.73
2022-09-09T20:11:18.210Z,15.68
2022-09-09T20:13:47.717Z,15.71
2022-09-09T20:16:17.360Z,15.71
2022-09-09T20:18:52.646Z,15.76
2022-09-09T20:21:28.055Z,15.71
2022-09-09T20:23:55.908Z,15.73
2022-09-09T20:26:26.171Z,15.73
2022-09-09T20:28:54.566Z,15.72
2022-09-09T20:31:27.194Z,15.75
2022-09-09T20:33:54.873Z,15.72
2022-09-09T20:36:26.555Z,15.73
2022-09-09T20:38:57.912Z,15.74
2022-09-09T20:41:29.771Z,15.70
2022-09-09T20:44:08.385Z,15.74
2022-09-09T20:46:38.273Z,15.79
2022-09-09T20:49:06.867Z,15.70
2022-09-09T20:51:34.957Z,15.67
2022-09-09T20:54:11.215Z,15.65
2022-09-09T20:56:40.082Z,15.67
2022-09-09T20:59:10.213Z,15.58
2022-09-09T21:01:37.581Z,15.57
2022-09-09T21:04:04.712Z,15.53
2022-09-09T21:06:31.174Z,15.48
2022-09-09T21:08:57.792Z,15.47
2022-09-09T21:11:24.191Z,15.49
2022-09-09T21:13:51.325Z,15.45
2022-09-09T21:16:21.472Z,15.46
2022-09-09T21:18:48.968Z,15.46
2022-09-09T21:21:15.978Z,15.45
2022-09-09T21:23:42.365Z,15.45
2022-09-09T21:26:09.863Z,15.44
2022-09-09T21:28:36.378Z,15.41
2022-09-09T21:31:03.683Z,15.37
2022-09-09T21:33:30.428Z,15.38
2022-09-09T21:36:03.252Z,15.31
2022-09-09T21:38:29.788Z,15.24
2022-09-09T21:40:56.174Z,15.27
2022-09-09T21:43:23.621Z,15.27
2022-09-09T21:46:02.996Z,15.26
2022-09-09T21:48:42.889Z,15.25
2022-09-09T21:51:21.112Z,15.25
2022-09-09T21:54:02.638Z,15.18
2022-09-09T21:56:57.579Z,15.20
2022-09-09T21:59:38.015Z,15.18
2022-09-09T22:02:27.072Z,15.18
2022-09-09T22:05:00.385Z,15.16
2022-09-09T22:07:40.436Z,15.09
2022-09-09T22:10:21.022Z,15.09
2022-09-09T22:15:53.790Z,15.05
2022-09-09T22:18:24.481Z,15.07
2022-09-09T22:21:16.129Z,15.04
2022-09-09T22:23:42.964Z,15.00
2022-09-09T22:26:09.779Z,14.97
2022-09-09T22:28:38.642Z,14.95
2022-09-09T22:31:06.077Z,14.89
2022-09-09T22:33:33.146Z,14.86
2022-09-09T22:35:59.529Z,14.78
2022-09-09T22:38:27.005Z,14.69
2022-09-09T22:40:53.678Z,14.66
2022-09-09T22:43:21.755Z,14.68
2022-09-09T22:45:48.777Z,14.65
2022-09-09T22:48:15.768Z,14.64
2022-09-09T22:50:42.844Z,14.65
2022-09-09T22:53:13.448Z,14.62
2022-09-09T22:55:40.279Z,14.62
2022-09-09T22:58:06.920Z,14.68
2022-09-09T23:00:33.566Z,14.69
2022-09-09T23:03:00.175Z,14.70
2022-09-09T23:05:27.655Z,14.74
2022-09-09T23:08:00.200Z,14.76
2022-09-09T23:10:27.320Z,14.78
2022-09-09T23:12:54.216Z,14.79
2022-09-09T23:15:20.751Z,14.81
2022-09-09T23:17:47.274Z,14.84
2022-09-09T23:20:17.984Z,14.85
2022-09-09T23:22:44.915Z,14.87
2022-09-09T23:25:11.556Z,14.88
2022-09-09T23:27:38.638Z,14.92
2022-09-09T23:30:07.159Z,14.94
2022-09-09T23:32:34.119Z,15.02
2022-09-09T23:35:00.806Z,14.98
2022-09-09T23:37:27.312Z,14.99
2022-09-09T23:39:53.805Z,14.95
2022-09-09T23:42:20.290Z,14.97
2022-09-09T23:44:47.300Z,14.96
2022-09-09T23:47:13.902Z,14.92
2022-09-09T23:49:40.284Z,14.84
2022-09-09T23:52:07.128Z,14.77
2022-09-09T23:54:34.766Z,14.69
2022-09-09T23:57:05.533Z,14.69
2022-09-09T23:59:31.990Z,14.63
